sensor_id;sensor_type;location;lat;lon;timestamp;pressure;altitude;pressure_sealevel;temperature;humidity
19576;BME280;41589;51.196;7.074;2023-08-21T00:06:36;99572.09;;;23.43;53.20
19576;BME280;41589;51.196;7.074;2023-08-21T00:11:53;99573.03;;;23.51;53.06
19576;BME280;41589;51.196;7.074;2023-08-21T00:17:02;99581.97;;;23.47;53.21
19576;BME280;41589;51.196;7.074;2023-08-21T00:22:30;99571.56;;;23.44;53.43
19576;BME280;41589;51.196;7.074;2023-08-21T00:27:46;99568.22;;;23.40;53.50
19576;BME280;41589;51.196;7.074;2023-08-21T00:32:53;99559.53;;;23.46;53.21
19576;BME280;41589;51.196;7.074;2023-08-21T00:38:02;99557.22;;;23.44;53.53
19576;BME280;41589;51.196;7.074;2023-08-21T00:43:22;99562.41;;;23.46;53.72
19576;BME280;41589;51.196;7.074;2023-08-21T00:48:34;99574.19;;;23.23;54.48
19576;BME280;41589;51.196;7.074;2023-08-21T00:53:42;99576.88;;;23.16;54.71
19576;BME280;41589;51.196;7.074;2023-08-21T00:58:49;99578.41;;;22.92;55.69
19576;BME280;41589;51.196;7.074;2023-08-21T01:04:12;99574.41;;;22.76;56.16
19576;BME280;41589;51.196;7.074;2023-08-21T01:15:21;99578.88;;;22.72;56.27
19576;BME280;41589;51.196;7.074;2023-08-21T01:20:31;99570.22;;;22.47;57.04
19576;BME280;41589;51.196;7.074;2023-08-21T01:25:36;99581.53;;;22.40;57.48
19576;BME280;41589;51.196;7.074;2023-08-21T01:30:42;99581.81;;;22.36;57.76
19576;BME280;41589;51.196;7.074;2023-08-21T01:35:49;99588.38;;;22.31;58.08
19576;BME280;41589;51.196;7.074;2023-08-21T01:41:12;99595.19;;;22.23;58.07
19576;BME280;41589;51.196;7.074;2023-08-21T01:46:36;99599.47;;;22.05;58.56
19576;BME280;41589;51.196;7.074;2023-08-21T01:51:54;99602.94;;;21.92;58.26
19576;BME280;41589;51.196;7.074;2023-08-21T01:57:00;99595.19;;;21.87;58.85
19576;BME280;41589;51.196;7.074;2023-08-21T02:02:16;99581.09;;;21.89;58.88
19576;BME280;41589;51.196;7.074;2023-08-21T02:28:31;99594.00;;;21.60;60.42
19576;BME280;41589;51.196;7.074;2023-08-21T02:33:54;99587.63;;;21.84;59.86
19576;BME280;41589;51.196;7.074;2023-08-21T02:44:21;99573.31;;;21.84;59.90
19576;BME280;41589;51.196;7.074;2023-08-21T02:49:31;99572.22;;;21.93;59.42
19576;BME280;41589;51.196;7.074;2023-08-21T02:54:40;99561.06;;;21.83;59.45
19576;BME280;41589;51.196;7.074;2023-08-21T02:59:54;99560.06;;;21.75;59.75
19576;BME280;41589;51.196;7.074;2023-08-21T03:10:47;99568.94;;;21.72;60.20
19576;BME280;41589;51.196;7.074;2023-08-21T03:31:54;99559.38;;;21.52;61.83
19576;BME280;41589;51.196;7.074;2023-08-21T03:37:30;99550.97;;;21.71;61.07
19576;BME280;41589;51.196;7.074;2023-08-21T03:42:38;99559.72;;;21.90;60.62
19576;BME280;41589;51.196;7.074;2023-08-21T03:47:57;99557.59;;;21.96;60.24
19576;BME280;41589;51.196;7.074;2023-08-21T03:53:10;99568.53;;;21.98;60.30
19576;BME280;41589;51.196;7.074;2023-08-21T03:58:34;99562.84;;;21.92;60.09
19576;BME280;41589;51.196;7.074;2023-08-21T04:03:51;99565.69;;;21.92;60.13
19576;BME280;41589;51.196;7.074;2023-08-21T04:08:55;99565.94;;;21.94;60.00
19576;BME280;41589;51.196;7.074;2023-08-21T04:14:25;99559.47;;;21.88;60.25
19576;BME280;41589;51.196;7.074;2023-08-21T04:19:40;99553.91;;;22.01;60.02
19576;BME280;41589;51.196;7.074;2023-08-21T04:24:55;99577.06;;;22.09;60.02
19576;BME280;41589;51.196;7.074;2023-08-21T05:02:20;99577.75;;;22.21;60.41
19576;BME280;41589;51.196;7.074;2023-08-21T05:07:21;99578.31;;;22.13;60.57
19576;BME280;41589;51.196;7.074;2023-08-21T05:12:21;99577.50;;;22.18;60.85
19576;BME280;41589;51.196;7.074;2023-08-21T05:17:22;99577.16;;;22.33;60.42
19576;BME280;41589;51.196;7.074;2023-08-21T05:22:22;99582.03;;;22.38;60.59
19576;BME280;41589;51.196;7.074;2023-08-21T05:27:23;99596.75;;;22.24;60.51
19576;BME280;41589;51.196;7.074;2023-08-21T05:32:24;99596.81;;;22.12;60.68
19576;BME280;41589;51.196;7.074;2023-08-21T05:37:25;99591.63;;;22.11;60.97
19576;BME280;41589;51.196;7.074;2023-08-21T05:42:33;99588.06;;;21.99;61.89
19576;BME280;41589;51.196;7.074;2023-08-21T05:47:33;99591.13;;;22.07;61.68
19576;BME280;41589;51.196;7.074;2023-08-21T05:52:34;99598.03;;;22.28;61.62
19576;BME280;41589;51.196;7.074;2023-08-21T05:57:35;99597.66;;;22.43;61.54
19576;BME280;41589;51.196;7.074;2023-08-21T06:02:36;99600.22;;;22.46;61.33
19576;BME280;41589;51.196;7.074;2023-08-21T06:07:36;99598.25;;;22.66;61.46
19576;BME280;41589;51.196;7.074;2023-08-21T06:12:37;99602.25;;;23.12;60.69
19576;BME280;41589;51.196;7.074;2023-08-21T06:17:38;99615.72;;;23.41;59.93
19576;BME280;41589;51.196;7.074;2023-08-21T06:22:39;99614.09;;;23.70;59.34
19576;BME280;41589;51.196;7.074;2023-08-21T06:27:40;99613.59;;;24.04;58.72
19576;BME280;41589;51.196;7.074;2023-08-21T06:32:40;99609.09;;;24.27;58.82
19576;BME280;41589;51.196;7.074;2023-08-21T06:37:41;99616.72;;;24.57;57.61
19576;BME280;41589;51.196;7.074;2023-08-21T06:42:42;99606.13;;;24.65;57.05
19576;BME280;41589;51.196;7.074;2023-08-21T06:47:42;99618.91;;;24.83;56.33
19576;BME280;41589;51.196;7.074;2023-08-21T06:52:43;99604.94;;;24.73;56.67
19576;BME280;41589;51.196;7.074;2023-08-21T06:57:44;99615.91;;;24.88;56.55
19576;BME280;41589;51.196;7.074;2023-08-21T07:02:44;99607.19;;;24.94;56.57
19576;BME280;41589;51.196;7.074;2023-08-21T07:07:44;99605.47;;;25.30;56.39
19576;BME280;41589;51.196;7.074;2023-08-21T07:12:45;99609.19;;;25.78;56.25
19576;BME280;41589;51.196;7.074;2023-08-21T07:17:45;99612.13;;;25.99;55.58
19576;BME280;41589;51.196;7.074;2023-08-21T07:22:45;99610.13;;;26.41;55.31
19576;BME280;41589;51.196;7.074;2023-08-21T07:27:46;99619.06;;;26.51;55.58
19576;BME280;41589;51.196;7.074;2023-08-21T07:32:55;99617.13;;;26.74;55.19
19576;BME280;41589;51.196;7.074;2023-08-21T07:37:55;99623.47;;;26.73;54.72
19576;BME280;41589;51.196;7.074;2023-08-21T07:42:56;99626.94;;;26.71;53.91
19576;BME280;41589;51.196;7.074;2023-08-21T07:47:56;99626.59;;;26.54;54.41
19576;BME280;41589;51.196;7.074;2023-08-21T07:52:56;99624.94;;;26.25;54.87
19576;BME280;41589;51.196;7.074;2023-08-21T07:57:59;99627.00;;;26.37;55.46
19576;BME280;41589;51.196;7.074;2023-08-21T08:03:02;99634.47;;;26.54;55.54
19576;BME280;41589;51.196;7.074;2023-08-21T08:08:03;99628.97;;;26.63;56.22
19576;BME280;41589;51.196;7.074;2023-08-21T08:13:03;99624.63;;;26.70;55.25
19576;BME280;41589;51.196;7.074;2023-08-21T08:18:04;99630.13;;;26.60;55.74
19576;BME280;41589;51.196;7.074;2023-08-21T08:23:07;99624.91;;;26.80;55.79
19576;BME280;41589;51.196;7.074;2023-08-21T08:28:13;99628.75;;;26.82;56.41
19576;BME280;41589;51.196;7.074;2023-08-21T08:33:13;99626.75;;;26.90;55.47
19576;BME280;41589;51.196;7.074;2023-08-21T08:38:13;99622.09;;;26.87;54.70
19576;BME280;41589;51.196;7.074;2023-08-21T08:43:14;99622.41;;;27.04;55.70
19576;BME280;41589;51.196;7.074;2023-08-21T08:48:15;99628.56;;;27.01;55.68
19576;BME280;41589;51.196;7.074;2023-08-21T08:53:17;99640.41;;;26.90;55.76
19576;BME280;41589;51.196;7.074;2023-08-21T08:58:18;99641.81;;;26.96;54.97
19576;BME280;41589;51.196;7.074;2023-08-21T09:03:23;99632.25;;;27.30;55.52
19576;BME280;41589;51.196;7.074;2023-08-21T09:08:26;99635.75;;;27.65;54.24
19576;BME280;41589;51.196;7.074;2023-08-21T09:13:30;99631.78;;;27.90;52.79
19576;BME280;41589;51.196;7.074;2023-08-21T09:18:34;99640.69;;;28.00;53.08
19576;BME280;41589;51.196;7.074;2023-08-21T09:23:39;99640.06;;;28.23;52.82
19576;BME280;41589;51.196;7.074;2023-08-21T09:28:47;99635.84;;;28.39;52.47
19576;BME280;41589;51.196;7.074;2023-08-21T09:33:58;99636.50;;;28.68;51.69
19576;BME280;41589;51.196;7.074;2023-08-21T09:39:00;99633.38;;;28.73;50.58
19576;BME280;41589;51.196;7.074;2023-08-21T09:44:01;99625.09;;;28.93;50.43
19576;BME280;41589;51.196;7.074;2023-08-21T09:49:05;99625.88;;;29.16;50.21
19576;BME280;41589;51.196;7.074;2023-08-21T09:54:06;99619.69;;;29.27;49.67
19576;BME280;41589;51.196;7.074;2023-08-21T09:59:09;99616.97;;;29.22;48.70
19576;BME280;41589;51.196;7.074;2023-08-21T10:04:13;99622.34;;;29.48;48.87
19576;BME280;41589;51.196;7.074;2023-08-21T10:09:16;99615.38;;;29.44;48.79
19576;BME280;41589;51.196;7.074;2023-08-21T10:14:23;99620.38;;;29.58;50.08
19576;BME280;41589;51.196;7.074;2023-08-21T10:19:32;99609.44;;;29.26;48.41
19576;BME280;41589;51.196;7.074;2023-08-21T10:24:38;99596.88;;;29.01;48.63
19576;BME280;41589;51.196;7.074;2023-08-21T10:29:38;99611.78;;;28.82;49.25
19576;BME280;41589;51.196;7.074;2023-08-21T10:34:52;99607.91;;;28.95;49.99
19576;BME280;41589;51.196;7.074;2023-08-21T10:39:56;99597.66;;;29.24;49.69
19576;BME280;41589;51.196;7.074;2023-08-21T10:44:57;99607.63;;;29.54;49.40
19576;BME280;41589;51.196;7.074;2023-08-21T10:50:01;99610.00;;;29.40;48.21
19576;BME280;41589;51.196;7.074;2023-08-21T10:55:02;99613.00;;;29.57;48.05
19576;BME280;41589;51.196;7.074;2023-08-21T11:00:07;99612.34;;;28.96;47.68
19576;BME280;41589;51.196;7.074;2023-08-21T11:11:02;99608.09;;;29.20;48.56
19576;BME280;41589;51.196;7.074;2023-08-21T11:16:24;99604.22;;;29.25;48.76
19576;BME280;41589;51.196;7.074;2023-08-21T11:21:28;99618.13;;;29.11;47.84
19576;BME280;41589;51.196;7.074;2023-08-21T11:32:22;99627.19;;;28.62;49.58
19576;BME280;41589;51.196;7.074;2023-08-21T11:37:49;99618.50;;;28.62;49.77
19576;BME280;41589;51.196;7.074;2023-08-21T11:48:41;99628.38;;;28.74;49.50
19576;BME280;41589;51.196;7.074;2023-08-21T11:53:49;99611.78;;;28.97;50.24
19576;BME280;41589;51.196;7.074;2023-08-21T11:59:01;99626.63;;;29.17;49.31
19576;BME280;41589;51.196;7.074;2023-08-21T12:04:39;99627.03;;;28.98;48.12
19576;BME280;41589;51.196;7.074;2023-08-21T12:10:03;99619.69;;;28.97;47.82
19576;BME280;41589;51.196;7.074;2023-08-21T12:15:17;99613.69;;;28.95;47.87
19576;BME280;41589;51.196;7.074;2023-08-21T12:25:42;99607.16;;;28.79;47.78
19576;BME280;41589;51.196;7.074;2023-08-21T12:36:06;99602.53;;;28.76;47.72
19576;BME280;41589;51.196;7.074;2023-08-21T12:41:12;99599.19;;;29.10;48.82
19576;BME280;41589;51.196;7.074;2023-08-21T12:46:15;99603.81;;;29.36;47.34
19576;BME280;41589;51.196;7.074;2023-08-21T12:51:24;99598.81;;;29.21;46.27
19576;BME280;41589;51.196;7.074;2023-08-21T12:56:45;99593.78;;;29.22;46.08
19576;BME280;41589;51.196;7.074;2023-08-21T13:01:46;99600.75;;;29.03;45.32
19576;BME280;41589;51.196;7.074;2023-08-21T13:06:46;99592.44;;;29.08;45.70
19576;BME280;41589;51.196;7.074;2023-08-21T13:11:46;99594.75;;;29.01;46.02
19576;BME280;41589;51.196;7.074;2023-08-21T13:16:49;99599.56;;;29.14;46.49
19576;BME280;41589;51.196;7.074;2023-08-21T13:21:50;99596.91;;;28.70;44.23
19576;BME280;41589;51.196;7.074;2023-08-21T13:26:51;99598.06;;;28.90;45.45
19576;BME280;41589;51.196;7.074;2023-08-21T13:31:51;99597.69;;;28.86;45.82
19576;BME280;41589;51.196;7.074;2023-08-21T13:36:52;99587.47;;;27.96;44.92
19576;BME280;41589;51.196;7.074;2023-08-21T13:41:52;99596.00;;;28.09;45.52
19576;BME280;41589;51.196;7.074;2023-08-21T13:46:53;99601.69;;;28.60;46.04
19576;BME280;41589;51.196;7.074;2023-08-21T13:51:53;99598.47;;;28.87;45.02
19576;BME280;41589;51.196;7.074;2023-08-21T13:56:54;99589.75;;;28.79;45.45
19576;BME280;41589;51.196;7.074;2023-08-21T14:01:54;99584.75;;;28.80;45.02
19576;BME280;41589;51.196;7.074;2023-08-21T14:06:54;99573.56;;;28.76;44.58
19576;BME280;41589;51.196;7.074;2023-08-21T14:11:55;99573.94;;;28.72;43.49
19576;BME280;41589;51.196;7.074;2023-08-21T14:16:55;99580.31;;;28.79;43.18
19576;BME280;41589;51.196;7.074;2023-08-21T14:21:57;99566.38;;;28.92;43.15
19576;BME280;41589;51.196;7.074;2023-08-21T14:26:58;99556.88;;;29.22;43.41
19576;BME280;41589;51.196;7.074;2023-08-21T14:31:59;99557.09;;;29.17;41.88
19576;BME280;41589;51.196;7.074;2023-08-21T14:37:00;99553.97;;;29.30;42.40
19576;BME280;41589;51.196;7.074;2023-08-21T14:42:00;99559.97;;;29.17;42.00
19576;BME280;41589;51.196;7.074;2023-08-21T14:47:01;99556.31;;;29.09;42.12
19576;BME280;41589;51.196;7.074;2023-08-21T14:52:02;99552.06;;;29.10;41.83
19576;BME280;41589;51.196;7.074;2023-08-21T14:57:03;99548.19;;;29.15;42.37
19576;BME280;41589;51.196;7.074;2023-08-21T15:02:03;99543.34;;;29.17;41.91
19576;BME280;41589;51.196;7.074;2023-08-21T15:07:05;99537.69;;;29.42;42.36
19576;BME280;41589;51.196;7.074;2023-08-21T15:12:05;99528.63;;;29.38;41.36
19576;BME280;41589;51.196;7.074;2023-08-21T15:17:06;99543.94;;;29.23;41.58
19576;BME280;41589;51.196;7.074;2023-08-21T15:22:06;99528.50;;;29.21;41.67
19576;BME280;41589;51.196;7.074;2023-08-21T15:27:07;99522.50;;;29.03;41.04
19576;BME280;41589;51.196;7.074;2023-08-21T15:32:07;99526.75;;;29.02;42.41
19576;BME280;41589;51.196;7.074;2023-08-21T15:37:08;99520.06;;;28.77;41.59
19576;BME280;41589;51.196;7.074;2023-08-21T15:42:09;99516.41;;;28.46;42.16
19576;BME280;41589;51.196;7.074;2023-08-21T15:47:09;99523.16;;;28.33;42.51
19576;BME280;41589;51.196;7.074;2023-08-21T15:52:09;99516.00;;;28.27;42.83
19576;BME280;41589;51.196;7.074;2023-08-21T15:57:11;99515.41;;;28.28;42.98
19576;BME280;41589;51.196;7.074;2023-08-21T16:02:12;99505.75;;;28.18;43.06
19576;BME280;41589;51.196;7.074;2023-08-21T16:07:12;99499.16;;;27.95;43.16
19576;BME280;41589;51.196;7.074;2023-08-21T16:12:12;99504.34;;;27.88;43.25
19576;BME280;41589;51.196;7.074;2023-08-21T16:17:13;99507.19;;;27.73;43.19
19576;BME280;41589;51.196;7.074;2023-08-21T16:22:13;99508.72;;;27.67;43.41
19576;BME280;41589;51.196;7.074;2023-08-21T16:27:13;99504.81;;;27.56;43.85
19576;BME280;41589;51.196;7.074;2023-08-21T16:32:14;99507.84;;;27.43;44.33
19576;BME280;41589;51.196;7.074;2023-08-21T16:37:14;99504.09;;;27.27;44.83
19576;BME280;41589;51.196;7.074;2023-08-21T16:42:15;99499.19;;;27.07;45.42
19576;BME280;41589;51.196;7.074;2023-08-21T16:47:15;99494.25;;;26.58;45.52
19576;BME280;41589;51.196;7.074;2023-08-21T16:52:17;99497.13;;;26.58;45.45
19576;BME280;41589;51.196;7.074;2023-08-21T16:57:17;99491.34;;;26.58;45.81
19576;BME280;41589;51.196;7.074;2023-08-21T17:02:18;99481.59;;;26.40;45.83
19576;BME280;41589;51.196;7.074;2023-08-21T17:07:21;99481.13;;;26.29;46.48
19576;BME280;41589;51.196;7.074;2023-08-21T17:12:21;99476.59;;;26.41;46.57
19576;BME280;41589;51.196;7.074;2023-08-21T17:17:21;99480.31;;;26.49;46.33
19576;BME280;41589;51.196;7.074;2023-08-21T17:22:23;99474.97;;;26.32;46.91
19576;BME280;41589;51.196;7.074;2023-08-21T17:27:26;99481.50;;;26.12;46.63
19576;BME280;41589;51.196;7.074;2023-08-21T17:32:26;99478.69;;;26.19;46.95
19576;BME280;41589;51.196;7.074;2023-08-21T17:37:27;99474.75;;;25.88;47.48
19576;BME280;41589;51.196;7.074;2023-08-21T17:42:27;99478.00;;;25.85;47.44
19576;BME280;41589;51.196;7.074;2023-08-21T17:47:28;99484.63;;;25.93;47.46
19576;BME280;41589;51.196;7.074;2023-08-21T17:52:28;99474.19;;;26.11;47.53
19576;BME280;41589;51.196;7.074;2023-08-21T17:57:29;99484.06;;;26.15;48.05
19576;BME280;41589;51.196;7.074;2023-08-21T18:02:29;99490.03;;;26.17;48.24
19576;BME280;41589;51.196;7.074;2023-08-21T18:07:29;99489.59;;;26.13;48.51
19576;BME280;41589;51.196;7.074;2023-08-21T18:12:30;99482.72;;;25.96;48.51
19576;BME280;41589;51.196;7.074;2023-08-21T18:17:30;99473.84;;;25.73;48.79
19576;BME280;41589;51.196;7.074;2023-08-21T18:22:31;99483.97;;;25.53;49.50
19576;BME280;41589;51.196;7.074;2023-08-21T18:27:31;99480.53;;;25.54;49.63
19576;BME280;41589;51.196;7.074;2023-08-21T18:32:32;99485.88;;;25.37;49.28
19576;BME280;41589;51.196;7.074;2023-08-21T18:37:34;99490.66;;;25.35;49.43
19576;BME280;41589;51.196;7.074;2023-08-21T18:42:35;99486.13;;;25.26;49.44
19576;BME280;41589;51.196;7.074;2023-08-21T18:47:37;99490.91;;;25.23;49.67
19576;BME280;41589;51.196;7.074;2023-08-21T18:52:38;99500.22;;;25.16;49.56
19576;BME280;41589;51.196;7.074;2023-08-21T18:57:39;99498.81;;;25.10;49.89
19576;BME280;41589;51.196;7.074;2023-08-21T19:02:40;99496.81;;;25.04;50.10
19576;BME280;41589;51.196;7.074;2023-08-21T19:07:40;99511.75;;;25.03;50.23
19576;BME280;41589;51.196;7.074;2023-08-21T19:12:41;99507.19;;;24.94;50.37
19576;BME280;41589;51.196;7.074;2023-08-21T19:17:41;99507.97;;;24.95;50.48
19576;BME280;41589;51.196;7.074;2023-08-21T19:22:42;99499.44;;;24.89;50.58
19576;BME280;41589;51.196;7.074;2023-08-21T19:27:42;99510.50;;;24.72;50.98
19576;BME280;41589;51.196;7.074;2023-08-21T19:32:43;99500.88;;;24.69;51.05
19576;BME280;41589;51.196;7.074;2023-08-21T19:37:43;99509.47;;;24.56;51.34
19576;BME280;41589;51.196;7.074;2023-08-21T19:42:46;99517.13;;;24.54;51.77
19576;BME280;41589;51.196;7.074;2023-08-21T19:47:51;99516.22;;;24.45;52.25
19576;BME280;41589;51.196;7.074;2023-08-21T19:52:51;99514.22;;;24.40;52.44
19576;BME280;41589;51.196;7.074;2023-08-21T19:58:03;99498.91;;;24.32;52.32
19576;BME280;41589;51.196;7.074;2023-08-21T20:08:50;99501.19;;;24.07;53.17
19576;BME280;41589;51.196;7.074;2023-08-21T20:14:02;99504.91;;;24.02;53.27
19576;BME280;41589;51.196;7.074;2023-08-21T20:19:17;99505.91;;;24.05;53.42
19576;BME280;41589;51.196;7.074;2023-08-21T20:24:24;99506.22;;;24.01;53.44
19576;BME280;41589;51.196;7.074;2023-08-21T20:29:40;99508.56;;;24.03;53.36
19576;BME280;41589;51.196;7.074;2023-08-21T20:35:01;99508.34;;;24.01;53.12
19576;BME280;41589;51.196;7.074;2023-08-21T20:40:03;99513.22;;;24.06;53.24
19576;BME280;41589;51.196;7.074;2023-08-21T20:45:08;99508.13;;;23.99;53.04
19576;BME280;41589;51.196;7.074;2023-08-21T20:50:10;99512.38;;;23.92;52.96
19576;BME280;41589;51.196;7.074;2023-08-21T20:55:11;99516.03;;;23.93;53.23
19576;BME280;41589;51.196;7.074;2023-08-21T21:00:11;99516.53;;;23.78;53.71
19576;BME280;41589;51.196;7.074;2023-08-21T21:05:12;99507.91;;;23.78;53.69
19576;BME280;41589;51.196;7.074;2023-08-21T21:10:13;99508.59;;;23.84;53.73
19576;BME280;41589;51.196;7.074;2023-08-21T21:15:13;99512.56;;;23.81;53.96
19576;BME280;41589;51.196;7.074;2023-08-21T21:20:14;99506.19;;;23.50;54.64
19576;BME280;41589;51.196;7.074;2023-08-21T21:25:17;99500.38;;;23.56;54.64
19576;BME280;41589;51.196;7.074;2023-08-21T21:30:18;99494.63;;;23.56;54.40
19576;BME280;41589;51.196;7.074;2023-08-21T21:35:18;99491.06;;;23.50;54.44
19576;BME280;41589;51.196;7.074;2023-08-21T21:40:19;99491.75;;;23.56;54.55
19576;BME280;41589;51.196;7.074;2023-08-21T21:45:19;99489.72;;;23.51;54.42
19576;BME280;41589;51.196;7.074;2023-08-21T21:50:20;99498.06;;;23.54;54.31
19576;BME280;41589;51.196;7.074;2023-08-21T21:55:26;99483.38;;;23.58;54.53
19576;BME280;41589;51.196;7.074;2023-08-21T22:00:29;99478.41;;;23.58;54.19
19576;BME280;41589;51.196;7.074;2023-08-21T22:05:31;99479.41;;;23.61;53.70
19576;BME280;41589;51.196;7.074;2023-08-21T22:10:33;99475.44;;;23.64;53.62
19576;BME280;41589;51.196;7.074;2023-08-21T22:15:37;99459.06;;;23.59;53.25
19576;BME280;41589;51.196;7.074;2023-08-21T22:20:37;99464.81;;;23.59;52.78
19576;BME280;41589;51.196;7.074;2023-08-21T22:25:38;99439.94;;;23.61;52.56
19576;BME280;41589;51.196;7.074;2023-08-21T22:30:42;99453.69;;;23.69;52.19
19576;BME280;41589;51.196;7.074;2023-08-21T22:35:49;99450.44;;;23.59;52.33
19576;BME280;41589;51.196;7.074;2023-08-21T22:40:50;99461.59;;;23.62;52.11
19576;BME280;41589;51.196;7.074;2023-08-21T22:45:50;99455.25;;;23.51;52.24
19576;BME280;41589;51.196;7.074;2023-08-21T22:50:52;99455.19;;;23.38;52.52
19576;BME280;41589;51.196;7.074;2023-08-21T22:55:58;99462.94;;;23.43;52.32
19576;BME280;41589;51.196;7.074;2023-08-21T23:00:59;99455.53;;;23.34;52.59
19576;BME280;41589;51.196;7.074;2023-08-21T23:05:59;99446.53;;;23.43;52.31
19576;BME280;41589;51.196;7.074;2023-08-21T23:11:01;99455.47;;;23.53;52.09
19576;BME280;41589;51.196;7.074;2023-08-21T23:22:11;99446.19;;;23.47;51.59
19576;BME280;41589;51.196;7.074;2023-08-21T23:27:11;99443.16;;;23.58;51.45
19576;BME280;41589;51.196;7.074;2023-08-21T23:32:24;99434.84;;;23.54;51.11
19576;BME280;41589;51.196;7.074;2023-08-21T23:37:27;99445.56;;;23.54;50.95
19576;BME280;41589;51.196;7.074;2023-08-21T23:42:30;99427.78;;;23.55;50.73
19576;BME280;41589;51.196;7.074;2023-08-21T23:47:33;99426.13;;;23.60;50.71
19576;BME280;41589;51.196;7.074;2023-08-21T23:52:36;99421.25;;;23.55;50.38
19576;BME280;41589;51.196;7.074;2023-08-21T23:57:45;99425.91;;;23.58;50.12
